^^
Datos históricos de la estación: Murcia-Puente Tocinos
Diario Informe para Junio 15, 2019 Unidades:  Inglés    Métrico   Ambas
Diario Semanal Mensual Anual Configurable
  Máximo: Mínimo: Media:
Temperatura: 86.9 °F 70.9 °F 77.4 °F
Punto de rocio: 55 °F 40.3 °F 45.3 °F
Humedad: 51% 24% 33%
Velocidad viento: 16mph 2mph 7.5mph
Racha viento: 32mph - -
Viento- - SSW
Presión: 30 in 29.9 in -
Precipitación: 0 in    
Historical Graphs
 
 
Tabla de datos para Junio 15, 2019
Hora Temperatura Punto de rocio Presión Viento Velocidad viento Racha viento Humedad Intensidad lluvia(por hora) Nubes
00:00 75.9 °F 53.6 °F 29.9 in SSW 5 mph 7 mph 46% 0 in RA
00:05 75.7 °F 54.1 °F 29.9 in SSW 5 mph 9 mph 47% 0 in RA
00:10 75.6 °F 53.8 °F 29.9 in SSW 5 mph 9 mph 47% 0 in CLR
00:15 75.2 °F 53.6 °F 29.9 in SSW 5 mph 7 mph 47% 0 in CLR
00:20 75 °F 54 °F 29.9 in SW 5 mph 8 mph 48% 0 in CLR
00:25 75 °F 54 °F 29.9 in SW 5 mph 6 mph 48% 0 in CLR
00:29 74.8 °F 53.8 °F 29.9 in SW 3.6 mph 4.6 mph 48% 0 in CLR
00:35 74.8 °F 53.8 °F 29.9 in SW 3 mph 6 mph 48% 0 in CLR
00:40 74.8 °F 54.3 °F 29.9 in SW 2 mph 7 mph 49% 0 in CLR
00:45 74.8 °F 54.3 °F 29.9 in SW 2 mph 6 mph 49% 0 in CLR
00:50 74.8 °F 54.9 °F 29.9 in WSW 3 mph 7 mph 50% 0 in CLR
00:55 74.5 °F 54.7 °F 29.9 in West 3 mph 7 mph 50% 0 in CLR
00:59 74.3 °F 55 °F 29.9 in WSW 4 mph 5.8 mph 51% 0 in CLR
01:05 74.1 °F 54.3 °F 29.9 in WSW 5 mph 8 mph 50% 0 in CLR
01:10 73.9 °F 54.1 °F 29.9 in SW 5 mph 6 mph 50% 0 in CLR
01:15 73.8 °F 54.5 °F 29.9 in SW 5 mph 6 mph 51% 0 in CLR
01:20 73.8 °F 54.5 °F 29.9 in SW 5 mph 8 mph 51% 0 in CLR
01:25 73.6 °F 54.3 °F 29.9 in SSW 5 mph 8 mph 51% 0 in CLR
01:30 73.6 °F 54.3 °F 29.9 in SSW 5 mph 9 mph 51% 0 in CLR
01:35 73.6 °F 53.8 °F 29.9 in SW 5 mph 8 mph 50% 0 in CLR
01:40 74.1 °F 52.5 °F 29.9 in WSW 5 mph 10 mph 47% 0 in CLR
01:45 74.5 °F 51.1 °F 29.9 in West 5 mph 9 mph 44% 0 in CLR
01:49 75 °F 49.1 °F 29.9 in West 5.4 mph 11.5 mph 40% 0 in CLR
01:55 75.4 °F 48 °F 29.9 in West 6 mph 9 mph 38% 0 in CLR
02:00 75.6 °F 47.5 °F 29.9 in West 5 mph 13 mph 37% 0 in CLR
02:05 75.4 °F 46.6 °F 29.9 in West 5 mph 10 mph 36% 0 in CLR
02:10 75.6 °F 45.1 °F 29.9 in West 6 mph 10 mph 34% 0 in CLR
02:15 75.6 °F 45.1 °F 29.9 in West 6 mph 8 mph 34% 0 in CLR
02:20 75.6 °F 44.4 °F 29.9 in WSW 5 mph 9 mph 33% 0 in CLR
02:25 75.7 °F 43.9 °F 29.9 in WSW 5 mph 8 mph 32% 0 in CLR
02:30 75.7 °F 43.9 °F 29.9 in WSW 5 mph 6 mph 32% 0 in CLR
02:34 75.7 °F 43.9 °F 29.9 in West 4 mph 8.1 mph 32% 0 in CLR
02:40 75.6 °F 43.7 °F 29.9 in West 5 mph 7 mph 32% 0 in CLR
02:45 75.6 °F 42.8 °F 29.9 in NW 4.3 mph 11.5 mph 31% 0 in CLR
02:50 75.6 °F 41.9 °F 29.9 in WNW 6 mph 15 mph 30% 0 in CLR
02:55 75.4 °F 41.7 °F 29.9 in WNW 6 mph 21 mph 30% 0 in CLR
03:00 75.4 °F 41.7 °F 29.9 in WNW 9 mph 17 mph 30% 0 in CLR
03:05 75.2 °F 41.5 °F 29.9 in WNW 9 mph 19 mph 30% 0 in CLR
03:10 75 °F 40.6 °F 29.9 in WNW 12 mph 30 mph 29% 0 in CLR
03:15 75 °F 40.6 °F 29.9 in WNW 12 mph 32 mph 29% 0 in CLR
03:20 75 °F 40.6 °F 29.9 in WNW 14 mph 25 mph 29% 0 in CLR
03:25 74.8 °F 40.5 °F 29.9 in WNW 14 mph 24 mph 29% 0 in CLR
03:30 74.8 °F 40.5 °F 29.9 in WNW 12 mph 19 mph 29% 0 in CLR
03:34 74.7 °F 40.3 °F 29.9 in WNW 11.8 mph 18.5 mph 29% 0 in CLR
03:40 74.7 °F 41.2 °F 29.9 in WNW 12 mph 22 mph 30% 0 in CLR
03:44 74.5 °F 41 °F 29.9 in WSW 11.8 mph 20.7 mph 30% 0 in CLR
03:50 74.3 °F 40.8 °F 29.9 in West 12 mph 17 mph 30% 0 in CLR
03:55 74.1 °F 40.6 °F 29.9 in West 12 mph 21 mph 30% 0 in CLR
04:00 74.1 °F 41.5 °F 29.9 in West 9 mph 16 mph 31% 0 in CLR
04:04 73.9 °F 41.4 °F 29.9 in West 8.7 mph 16.1 mph 31% 0 in CLR
04:10 73.9 °F 41.4 °F 29.9 in West 9 mph 16 mph 31% 0 in CLR
04:15 73.8 °F 41.2 °F 29.9 in West 9 mph 14 mph 31% 0 in CLR
04:20 73.6 °F 41.2 °F 29.9 in West 7 mph 14 mph 31% 0 in CLR
04:25 73.6 °F 41.2 °F 29.9 in WSW 7 mph 20 mph 31% 0 in CLR
04:29 73.2 °F 41.5 °F 29.9 in WNW 8.5 mph 15 mph 32% 0 in CLR
04:35 73.2 °F 41.5 °F 29.9 in West 8 mph 18 mph 32% 0 in CLR
04:40 73 °F 41.4 °F 29.9 in West 10 mph 19 mph 32% 0 in CLR
04:45 72.9 °F 41.4 °F 29.9 in West 10 mph 21 mph 32% 0 in CLR
04:50 72.9 °F 42.1 °F 29.9 in West 9 mph 17 mph 33% 0 in CLR
04:54 72.9 °F 42.1 °F 29.9 in WNW 9.2 mph 17.8 mph 33% 0 in CLR
05:00 72.7 °F 41.9 °F 29.9 in West 10 mph 20 mph 33% 0 in CLR
05:05 72.7 °F 41.9 °F 29.9 in WNW 10 mph 18 mph 33% 0 in CLR
05:10 72.5 °F 42.4 °F 29.9 in WNW 8 mph 15 mph 34% 0 in CLR
05:14 72.3 °F 42.4 °F 29.9 in WNW 8.1 mph 17.3 mph 34% 0 in CLR
05:20 72.3 °F 42.4 °F 29.9 in West 8 mph 15 mph 34% 0 in CLR
05:25 72.3 °F 43.2 °F 29.9 in WNW 8 mph 17 mph 35% 0 in CLR
05:30 72.1 °F 43 °F 29.9 in WNW 7 mph 14 mph 35% 0 in CLR
05:35 72.1 °F 43 °F 29.9 in West 7 mph 17 mph 35% 0 in CLR
05:40 72 °F 43.5 °F 29.9 in West 7 mph 14 mph 36% 0 in CLR
05:45 72 °F 43.5 °F 29.9 in West 7 mph 14 mph 36% 0 in CLR
05:50 71.8 °F 43.3 °F 29.9 in West 7 mph 14 mph 36% 0 in CLR
05:55 71.8 °F 43.3 °F 29.9 in West 7 mph 13 mph 36% 0 in CLR
06:00 71.6 °F 43.2 °F 29.9 in West 7 mph 15 mph 36% 0 in CLR
06:05 71.4 °F 43.2 °F 29.9 in West 7 mph 10 mph 36% 0 in CLR
06:10 71.4 °F 43.2 °F 29.9 in West 6 mph 12 mph 36% 0 in CLR
06:15 71.4 °F 43.2 °F 29.9 in WSW 6 mph 14 mph 36% 0 in CLR
06:20 71.4 °F 43.2 °F 29.9 in West 8 mph 17 mph 36% 0 in CLR
06:24 71.4 °F 43.2 °F 29.9 in West 8.1 mph 10.4 mph 36% 0 in CLR
06:30 71.2 °F 43 °F 29.9 in West 7 mph 10 mph 36% 0 in CLR
06:35 71.2 °F 43 °F 30 in WSW 7 mph 12 mph 36% 0 in CLR
06:40 71.1 °F 42.6 °F 30 in WSW 6 mph 11 mph 36% 0 in CLR
06:45 71.1 °F 42.6 °F 30 in WSW 6 mph 10 mph 36% 0 in CLR
06:49 71.1 °F 42.6 °F 30 in SW 5.9 mph 6.9 mph 36% 0 in CLR
06:55 71.1 °F 42.6 °F 30 in WSW 6 mph 9 mph 36% 0 in CLR
07:00 70.9 °F 42.6 °F 30 in West 6 mph 10 mph 36% 0 in CLR
07:05 70.9 °F 41.9 °F 30 in WSW 6 mph 12 mph 35% 0 in CLR
07:10 70.9 °F 42.6 °F 30 in WSW 7 mph 16 mph 36% 0 in CLR
07:15 70.9 °F 42.6 °F 30 in WSW 7 mph 12 mph 36% 0 in CLR
07:19 70.9 °F 42.6 °F 30 in SW 5.9 mph 8.1 mph 36% 0 in CLR
07:25 70.9 °F 41.9 °F 30 in WSW 6 mph 19 mph 35% 0 in CLR
07:30 70.9 °F 41.9 °F 30 in WSW 8 mph 12 mph 35% 0 in CLR
07:34 71.1 °F 42.1 °F 30 in WSW 8.1 mph 10.4 mph 35% 0 in CLR
07:40 71.2 °F 42.1 °F 30 in WSW 8 mph 16 mph 35% 0 in CLR
07:44 71.2 °F 42.3 °F 30 in WSW 7.6 mph 13.8 mph 35% 0 in CLR
07:50 71.2 °F 42.3 °F 30 in WSW 8 mph 13 mph 35% 0 in CLR
07:55 71.4 °F 43.2 °F 30 in WSW 8 mph 10 mph 36% 0 in CLR
07:59 71.2 °F 43 °F 30 in WNW 5.4 mph 10.7 mph 36% 0 in CLR
08:04 71.2 °F 42.3 °F 30 in West 5.4 mph 9.2 mph 35% 0 in CLR
08:10 71.4 °F 43.2 °F 30 in WSW 6 mph 10 mph 36% 0 in CLR
08:15 71.6 °F 42.4 °F 30 in WSW 6 mph 11 mph 35% 0 in CLR
08:19 71.8 °F 42.6 °F 30 in SW 6.2 mph 9.2 mph 35% 0 in CLR
08:25 72 °F 42.8 °F 30 in WSW 6 mph 15 mph 35% 0 in CLR
08:30 72.1 °F 42.3 °F 30 in West 7 mph 12 mph 34% 0 in CLR
08:35 72.3 °F 42.4 °F 30 in West 7 mph 15 mph 34% 0 in CLR
08:39 72.3 °F 42.4 °F 30 in WNW 8.5 mph 15 mph 34% 0 in CLR
08:44 72.3 °F 42.4 °F 30 in WSW 8.5 mph 18.4 mph 34% 0 in CLR
08:50 72.3 °F 42.3 °F 30 in West 9 mph 18 mph 34% 0 in CLR
08:54 72.1 °F 42.3 °F 30 in West 8.7 mph 17.3 mph 34% 0 in CLR
08:59 72.3 °F 42.4 °F 30 in West 10.7 mph 15.6 mph 34% 0 in CLR
09:04 72.1 °F 42.3 °F 30 in West 10.7 mph 18.4 mph 34% 0 in CLR
09:10 72.1 °F 42.3 °F 30 in West 12 mph 21 mph 34% 0 in CLR
09:14 72.1 °F 42.3 °F 30 in WNW 11.2 mph 17.3 mph 34% 0 in CLR
09:19 72.3 °F 42.4 °F 30 in West 11.8 mph 17.5 mph 34% 0 in CLR
09:24 72.7 °F 42.6 °F 30 in WNW 11.8 mph 18.4 mph 34% 0 in CLR
09:30 73 °F 43 °F 30 in WNW 10 mph 18 mph 34% 0 in CLR
09:34 72.9 °F 42.8 °F 30 in West 10.2 mph 15 mph 34% 0 in CLR
09:39 72.9 °F 42.1 °F 30 in West 12.5 mph 20.7 mph 33% 0 in CLR
09:44 72.9 °F 42.1 °F 30 in WNW 12.5 mph 25.3 mph 33% 0 in CLR
09:49 72.9 °F 42.1 °F 30 in NW 15.6 mph 22.3 mph 33% 0 in CLR
09:55 73 °F 42.3 °F 30 in WNW 16 mph 26 mph 33% 0 in CLR
09:59 73 °F 42.3 °F 30 in WNW 14.5 mph 19.6 mph 33% 0 in CLR
10:04 73.4 °F 43.3 °F 30 in NW 14.5 mph 21.9 mph 34% 0 in CLR
10:10 73.6 °F 43.5 °F 30 in WNW 12 mph 20 mph 34% 0 in CLR
10:14 73.8 °F 43 °F 30 in WNW 11.4 mph 17.3 mph 33% 0 in CLR
10:19 73.9 °F 43 °F 30 in West 11.8 mph 21.9 mph 33% 0 in CLR
10:25 73.9 °F 43 °F 30 in WNW 12 mph 20 mph 33% 0 in CLR
10:29 74.3 °F 43.3 °F 30 in West 11.8 mph 15 mph 33% 0 in CLR
10:35 74.5 °F 42.6 °F 30 in WNW 12 mph 21 mph 32% 0 in CLR
10:39 74.5 °F 43.5 °F 30 in NW 11.4 mph 13.8 mph 33% 0 in CLR
10:44 74.7 °F 43.5 °F 30 in WNW 11.4 mph 18.4 mph 33% 0 in CLR
10:49 75 °F 43.2 °F 30 in WNW 10.7 mph 10.4 mph 32% 0 in CLR
10:54 75 °F 42.3 °F 30 in WNW 10.7 mph 15 mph 31% 0 in CLR
10:59 75.4 °F 43.5 °F 30 in West 9.7 mph 12.7 mph 32% 0 in CLR
11:05 75.4 °F 42.6 °F 30 in WNW 9 mph 17 mph 31% 0 in CLR
11:10 75.6 °F 42.8 °F 30 in WNW 10 mph 16 mph 31% 0 in CLR
11:15 75.9 °F 43.2 °F 30 in West 10 mph 16 mph 31% 0 in CLR
11:19 76.5 °F 42.6 °F 30 in WSW 8.7 mph 11.5 mph 30% 0 in CLR
11:25 76.5 °F 42.6 °F 30 in WNW 8.7 mph 8.5 mph 30% 0 in CLR
11:29 76.6 °F 43.7 °F 30 in NW 7.4 mph 12.7 mph 31% 0 in CLR
11:34 76.6 °F 43.7 °F 30 in West 7.4 mph 13 mph 31% 0 in CLR
11:39 76.8 °F 43 °F 30 in West 8.1 mph 12.5 mph 30% 0 in CLR
11:44 77 °F 43.2 °F 30 in West 8.1 mph 12.7 mph 30% 0 in CLR
11:49 77.4 °F 42.6 °F 30 in West 8.5 mph 13.8 mph 29% 0 in CLR
11:54 77.5 °F 42.8 °F 30 in West 8.5 mph 13.8 mph 29% 0 in CLR
11:59 77.5 °F 42.8 °F 30 in WSW 8.1 mph 12.7 mph 29% 0 in CLR
12:04 78.3 °F 43.3 °F 30 in WSW 8.1 mph 11.5 mph 29% 0 in CLR
12:09 78.4 °F 43.5 °F 30 in WNW 6.2 mph 10.4 mph 29% 0 in CLR
12:14 79 °F 43.2 °F 30 in West 6.2 mph 13.8 mph 28% 0 in CLR
12:19 78.6 °F 42.8 °F 30 in WSW 7.4 mph 13.8 mph 28% 0 in CLR
12:24 79.2 °F 43.2 °F 30 in SSW 7.4 mph 9.2 mph 28% 0 in CLR
12:29 79.5 °F 43.5 °F 30 in WNW 5.4 mph 7.6 mph 28% 0 in CLR
12:34 79.2 °F 43.2 °F 30 in WNW 5.4 mph 10.4 mph 28% 0 in CLR
12:39 79.2 °F 43.2 °F 30 in West 6.4 mph 6.9 mph 28% 0 in CLR
12:45 79.3 °F 43.3 °F 30 in WSW 7 mph 11 mph 28% 0 in CLR
12:49 79.3 °F 43.3 °F 30 in South 6.4 mph 10.4 mph 28% 0 in CLR
12:54 79.5 °F 43.5 °F 30 in South 6.4 mph 6.9 mph 28% 0 in CLR
12:59 79.7 °F 42.8 °F 30 in WNW 5.4 mph 5.4 mph 27% 0 in CLR
13:04 80.2 °F 43.2 °F 30 in WNW 5.4 mph 8.5 mph 27% 0 in CLR
13:09 80.2 °F 43.2 °F 30 in SSW 4.7 mph 9.2 mph 27% 0 in CLR
13:14 80.4 °F 43.3 °F 30 in WNW 4.7 mph 4.6 mph 27% 0 in CLR
13:19 80.8 °F 43.7 °F 30 in West 4.7 mph 5.4 mph 27% 0 in CLR
13:24 81.1 °F 44.1 °F 30 in NNW 4.7 mph 5.8 mph 27% 0 in CLR
13:29 81.5 °F 44.2 °F 30 in NNW 3.6 mph 6.9 mph 27% 0 in CLR
13:35 81.9 °F 43.5 °F 30 in SSW 3 mph 13 mph 26% 0 in CLR
13:39 81.9 °F 43.5 °F 30 in SW 5.2 mph 11.5 mph 26% 0 in CLR
13:44 81.3 °F 43.2 °F 30 in SW 5.2 mph 6.9 mph 26% 0 in CLR
13:50 81.3 °F 43.2 °F 30 in WSW 6 mph 6 mph 26% 0 in CLR
13:55 81.7 °F 43.5 °F 30 in SW 6 mph 9 mph 26% 0 in CLR
13:59 82.2 °F 43.9 °F 30 in West 3.6 mph 8.1 mph 26% 0 in CLR
14:04 82.4 °F 43 °F 30 in West 3.6 mph 5.8 mph 25% 0 in CLR
14:09 82.6 °F 43.2 °F 30 in West 4 mph 5.8 mph 25% 0 in CLR
14:14 82.9 °F 43.5 °F 30 in NW 4 mph 6.4 mph 25% 0 in CLR
14:19 83.1 °F 43.5 °F 30 in NW 3.6 mph 8.1 mph 25% 0 in CLR
14:24 83.3 °F 43.9 °F 30 in WNW 3.6 mph 6.9 mph 25% 0 in CLR
14:29 82.9 °F 43.5 °F 30 in NW 5.2 mph 9.2 mph 25% 0 in CLR
14:34 83.3 °F 43.9 °F 30 in NW 5.2 mph 6.9 mph 25% 0 in CLR
14:39 83.8 °F 44.2 °F 30 in NE 4.7 mph 6.9 mph 25% 0 in CLR
14:44 83.8 °F 44.2 °F 30 in WNW 4.7 mph 6.9 mph 25% 0 in CLR
14:50 84 °F 44.4 °F 30 in West 5 mph 10 mph 25% 0 in CLR
14:54 84 °F 44.4 °F 30 in WNW 4.7 mph 6.9 mph 25% 0 in CLR
14:59 84.6 °F 45 °F 30 in NW 5.2 mph 8.1 mph 25% 0 in CLR
15:04 84.7 °F 43.9 °F 30 in WNW 5.2 mph 8.1 mph 24% 0 in CLR
15:09 85.3 °F 44.4 °F 30 in West 5.2 mph 7.6 mph 24% 0 in CLR
15:14 84.9 °F 44.1 °F 30 in WNW 5.2 mph 4.6 mph 24% 0 in CLR
15:19 85.5 °F 44.4 °F 29.9 in North 5.2 mph 8.1 mph 24% 0 in CLR
15:24 85.8 °F 44.8 °F 29.9 in North 5.2 mph 6.9 mph 24% 0 in CLR
15:29 86 °F 45 °F 29.9 in WNW 4 mph 5.9 mph 24% 0 in CLR
15:34 85.8 °F 44.8 °F 29.9 in South 4 mph 5.8 mph 24% 0 in CLR
15:40 86 °F 46 °F 29.9 in WNW 5 mph 10 mph 25% 0 in CLR
15:44 86.5 °F 45.5 °F 29.9 in SE 4 mph 12.7 mph 24% 0 in CLR
15:49 86.5 °F 45.5 °F 29.9 in NE 4.3 mph 5.8 mph 24% 0 in CLR
15:54 86.5 °F 45.5 °F 29.9 in ESE 4.3 mph 7.4 mph 24% 0 in CLR
15:59 86.7 °F 46.8 °F 29.9 in NE 4.3 mph 13 mph 25% 0 in CLR
16:04 86.9 °F 49.8 °F 29.9 in SE 4.3 mph 6.2 mph 28% 0 in CLR
16:10 86.5 °F 49.6 °F 29.9 in East 6 mph 13 mph 28% 0 in CLR
16:14 86.5 °F 52.3 °F 29.9 in East 6.2 mph 23 mph 31% 0 in CLR
16:19 86.2 °F 52.9 °F 29.9 in ESE 8.7 mph 18.4 mph 32% 0 in CLR
16:24 85.6 °F 53.2 °F 29.9 in SSE 8.7 mph 18.4 mph 33% 0 in CLR
16:29 85.3 °F 52.2 °F 29.9 in ESE 11.4 mph 18.4 mph 32% 0 in CLR
16:34 85.5 °F 52.2 °F 29.9 in ESE 11.4 mph 16.8 mph 32% 0 in CLR
16:39 85.1 °F 52 °F 29.9 in ESE 11.2 mph 15.6 mph 32% 0 in CLR
16:44 84.4 °F 50.4 °F 29.9 in ESE 11.2 mph 24.2 mph 31% 0 in CLR
16:49 84.4 °F 50.4 °F 29.9 in SSE 13.7 mph 16.1 mph 31% 0 in CLR
16:54 84.7 °F 50.7 °F 29.9 in SSE 13.7 mph 13.8 mph 31% 0 in CLR
16:59 84.9 °F 50 °F 29.9 in SE 10.7 mph 17.3 mph 30% 0 in CLR
17:04 84.6 °F 49.6 °F 29.9 in SE 10.7 mph 16.8 mph 30% 0 in CLR
17:09 84.7 °F 49.8 °F 29.9 in SSE 11.4 mph 15 mph 30% 0 in CLR
17:14 85.3 °F 49.5 °F 29.9 in ESE 11.4 mph 17.3 mph 29% 0 in CLR
17:19 85.3 °F 50.4 °F 29.9 in ESE 9.7 mph 17.3 mph 30% 0 in CLR
17:24 85.3 °F 49.5 °F 29.9 in SE 9.7 mph 11.8 mph 29% 0 in CLR
17:29 84.9 °F 49.1 °F 29.9 in ESE 10.7 mph 15 mph 29% 0 in CLR
17:34 84.7 °F 48.9 °F 29.9 in SE 10.7 mph 16.1 mph 29% 0 in CLR
17:39 84.7 °F 48.9 °F 29.9 in ESE 11.4 mph 15 mph 29% 0 in CLR
17:44 84.9 °F 49.1 °F 29.9 in SE 11.4 mph 15 mph 29% 0 in CLR
17:49 84.9 °F 49.1 °F 29.9 in ESE 9.7 mph 18.4 mph 29% 0 in CLR
17:54 84.6 °F 48.7 °F 29.9 in SE 9.7 mph 12.7 mph 29% 0 in CLR
17:59 84.9 °F 49.1 °F 29.9 in SE 9.7 mph 16.8 mph 29% 0 in CLR
18:04 84.6 °F 48.7 °F 29.9 in SSE 9.7 mph 15 mph 29% 0 in CLR
18:09 84 °F 48.4 °F 29.9 in ESE 10.2 mph 24.2 mph 29% 0 in CLR
18:14 84 °F 48.4 °F 29.9 in ESE 10.2 mph 15 mph 29% 0 in CLR
18:19 84.4 °F 48.6 °F 29.9 in SE 10 mph 15 mph 29% 0 in CLR
18:24 84.7 °F 48 °F 29.9 in ESE 10 mph 12.7 mph 28% 0 in CLR
18:29 84.6 °F 46.9 °F 29.9 in ESE 8.5 mph 16.1 mph 27% 0 in CLR
18:34 84.4 °F 47.7 °F 29.9 in SE 8.5 mph 16.1 mph 28% 0 in CLR
18:39 84 °F 47.5 °F 29.9 in SE 10.7 mph 11.5 mph 28% 0 in CLR
18:44 84.4 °F 47.7 °F 29.9 in ESE 10.7 mph 11.5 mph 28% 0 in CLR
18:49 84.2 °F 47.7 °F 29.9 in SE 8.1 mph 13.8 mph 28% 0 in CLR
18:54 83.8 °F 47.1 °F 29.9 in ENE 8.1 mph 17.3 mph 28% 0 in CLR
18:59 83.5 °F 47.8 °F 29.9 in ESE 11.2 mph 17.3 mph 29% 0 in CLR
19:04 83.8 °F 48.2 °F 29.9 in ESE 11.2 mph 10.4 mph 29% 0 in CLR
19:09 83.5 °F 47.8 °F 29.9 in SE 9.2 mph 13.5 mph 29% 0 in CLR
19:14 83.5 °F 47.8 °F 29.9 in SE 9.2 mph 16.1 mph 29% 0 in CLR
19:19 83.1 °F 47.7 °F 29.9 in ESE 9.7 mph 16.1 mph 29% 0 in CLR
19:24 82.9 °F 47.5 °F 29.9 in East 9.7 mph 15 mph 29% 0 in CLR
19:29 82.6 °F 47.1 °F 29.9 in ESE 10.7 mph 15.9 mph 29% 0 in CLR
19:34 82.8 °F 47.3 °F 29.9 in SE 10.7 mph 13.8 mph 29% 0 in CLR
19:39 82.9 °F 47.5 °F 29.9 in SE 8.5 mph 14.7 mph 29% 0 in CLR
19:44 82.6 °F 47.1 °F 29.9 in SE 8.5 mph 18.4 mph 29% 0 in CLR
19:49 82.8 °F 47.3 °F 29.9 in ESE 9.2 mph 13.8 mph 29% 0 in CLR
19:54 82.6 °F 47.1 °F 29.9 in SE 9.2 mph 11.5 mph 29% 0 in CLR
19:59 82.2 °F 46.8 °F 29.9 in SE 8.1 mph 12.7 mph 29% 0 in CLR
20:04 82.2 °F 46.8 °F 29.9 in SE 8.1 mph 9.2 mph 29% 0 in CLR
20:09 82.2 °F 46.8 °F 29.9 in SE 7.6 mph 8.1 mph 29% 0 in CLR
20:14 82 °F 46.6 °F 29.9 in ESE 7.6 mph 9.2 mph 29% 0 in CLR
20:19 81.9 °F 46.6 °F 29.9 in SE 6.9 mph 11.5 mph 29% 0 in CLR
20:24 81.7 °F 46.2 °F 29.9 in SE 6.9 mph 8.1 mph 29% 0 in CLR
20:29 81.1 °F 45.9 °F 29.9 in NE 7.4 mph 12.7 mph 29% 0 in CLR
20:34 81 °F 45.7 °F 29.9 in SE 7.4 mph 9.2 mph 29% 0 in CLR
20:39 80.8 °F 46.4 °F 29.9 in SE 7.4 mph 9.2 mph 30% 0 in CLR
20:44 80.8 °F 45.7 °F 29.9 in ESE 7.4 mph 8.5 mph 29% 0 in CLR
20:49 80.6 °F 45.3 °F 30 in ESE 5.9 mph 9.2 mph 29% 0 in CLR
20:54 80.2 °F 45.1 °F 30 in East 5.9 mph 9.2 mph 29% 0 in CLR
20:59 80.1 °F 45 °F 30 in East 6.2 mph 8.1 mph 29% 0 in CLR
21:04 79.7 °F 45.5 °F 30 in ESE 6.2 mph 10.4 mph 30% 0 in CLR
21:09 79.3 °F 45.1 °F 30 in East 6.9 mph 10 mph 30% 0 in CLR
21:14 79.2 °F 45 °F 30 in SE 6.9 mph 9.2 mph 30% 0 in CLR
21:19 78.8 °F 44.8 °F 30 in SE 7.4 mph 11.5 mph 30% 0 in CLR
21:24 78.4 °F 45.3 °F 30 in ESE 7.4 mph 11.5 mph 31% 0 in CLR
21:29 78.3 °F 45.1 °F 30 in ESE 7.6 mph 10.7 mph 31% 0 in CLR
21:34 77.7 °F 44.8 °F 30 in ESE 7.6 mph 12.7 mph 31% 0 in CLR
21:39 77.5 °F 44.4 °F 30 in ESE 8.1 mph 12.3 mph 31% 0 in CLR
21:44 77.4 °F 45.1 °F 30 in ESE 8.1 mph 9.2 mph 32% 0 in CLR
21:49 77.2 °F 44.2 °F 30 in East 7.6 mph 12.7 mph 31% 0 in CLR
21:54 76.8 °F 44.8 °F 30 in ESE 7.6 mph 8.1 mph 32% 0 in CLR
21:59 76.6 °F 44.6 °F 30 in ESE 6.2 mph 9.2 mph 32% 0 in CLR
22:04 76.5 °F 44.4 °F 30 in ESE 6.2 mph 9.2 mph 32% 0 in CLR
22:09 76.5 °F 43.5 °F 30 in ESE 6.9 mph 10.4 mph 31% 0 in CLR
22:14 76.3 °F 43.3 °F 30 in ESE 6.9 mph 10.4 mph 31% 0 in CLR
22:19 76.1 °F 44.1 °F 30 in ESE 7.4 mph 9.2 mph 32% 0 in CLR
22:24 75.9 °F 43.9 °F 30 in ESE 7.4 mph 6.9 mph 32% 0 in CLR
22:29 75.7 °F 44.6 °F 30 in ENE 5.4 mph 8.1 mph 33% 0 in CLR
22:34 75.6 °F 44.4 °F 30 in ESE 5.4 mph 5.8 mph 33% 0 in CLR
22:39 75.4 °F 44.2 °F 30 in East 4 mph 6.9 mph 33% 0 in CLR
22:44 75 °F 44.1 °F 30 in East 4 mph 5.8 mph 33% 0 in CLR
22:49 74.8 °F 43.9 °F 30 in East 3.6 mph 3.5 mph 33% 0 in CLR
22:54 74.8 °F 43.9 °F 30 in NE 3.6 mph 3.1 mph 33% 0 in CLR
22:59 74.7 °F 44.4 °F 30 in NNE 2 mph 5.9 mph 34% 0 in CLR
23:04 74.3 °F 45 °F 30 in NE 2 mph 7.4 mph 35% 0 in CLR
23:09 73.9 °F 46 °F 30 in NNE 5.2 mph 5.4 mph 37% 0 in CLR
23:14 73.8 °F 46.6 °F 30 in NE 5.2 mph 8.1 mph 38% 0 in CLR
23:19 73.6 °F 46.4 °F 30 in NE 5.9 mph 8.1 mph 38% 0 in CLR
23:24 73.6 °F 47.1 °F 30 in NNE 5.9 mph 7.6 mph 39% 0 in CLR
23:29 73.2 °F 47.5 °F 30 in North 5.4 mph 6.9 mph 40% 0 in CLR
23:34 73 °F 47.3 °F 30 in NNE 5.4 mph 6.9 mph 40% 0 in CLR
23:39 72.9 °F 47.8 °F 30 in NE 4.7 mph 8.1 mph 41% 0 in CLR
23:44 72.7 °F 47.7 °F 30 in NE 4.7 mph 8.1 mph 41% 0 in CLR
23:49 72.3 °F 47.3 °F 30 in NNE 5.2 mph 6.9 mph 41% 0 in CLR
23:54 72.1 °F 47.8 °F 30 in NE 5.2 mph 4.6 mph 42% 0 in CLR
23:59 72 °F 47.7 °F 30 in NE 3.6 mph 4.7 mph 42% 0 in CLR
Murcia-Puente Tocinos, España
Compliments of Weather Underground - 2.75 mb

La estación de MeteoMurcia.com, publica sus datos en los siguientes proyectos:

Weather Underground PWS IMURCIAP2 Meteoclimatic www.awekas.at

W3Counter
Web Analytics